Time;durP1;ratioP1;P1;durP2;ratioP2;P2;SDS_P1;SDS_P2;PMS_P1;PMS_P2;Temp;Humidity;BMP_temperature;BMP_pressure;BME280_temperature;BME280_humidity;BME280_pressure;Samples;Min_cycle;Max_cycle;Signal;HPM_P1;HPM_P2
2021/05/05 00:00:19;;;;;;;4.85;4.45;;;11.80;99.90;;;;;;5092383;28;20301;-44
2021/05/05 00:02:46;;;;;;;4.78;4.38;;;11.80;99.90;;;;;;5092798;28;20335;-44
2021/05/05 00:05:14;;;;;;;5.20;4.30;;;11.80;99.90;;;;;;5092524;28;20692;-44
2021/05/05 00:07:42;;;;;;;4.25;3.88;;;11.80;99.90;;;;;;5092426;28;20301;-45
2021/05/05 00:10:11;;;;;;;4.82;4.43;;;11.80;99.90;;;;;;5092363;28;20275;-46
2021/05/05 00:12:38;;;;;;;4.97;4.47;;;11.80;99.90;;;;;;5092426;28;20261;-44
2021/05/05 00:15:06;;;;;;;4.80;4.40;;;11.80;99.90;;;;;;5092165;28;20297;-47
2021/05/05 00:17:34;;;;;;;4.80;4.40;;;11.80;99.90;;;;;;5092633;28;20292;-48
2021/05/05 00:20:01;;;;;;;3.70;3.40;;;11.80;99.90;;;;;;5092418;28;20612;-45
2021/05/05 00:22:28;;;;;;;5.78;4.68;;;11.70;99.90;;;;;;5091950;28;20202;-44
2021/05/05 00:24:55;;;;;;;4.13;3.78;;;11.70;99.90;;;;;;5092246;28;20635;-43
2021/05/05 00:27:22;;;;;;;4.30;3.72;;;11.70;99.90;;;;;;5092276;28;20297;-44
2021/05/05 00:29:49;;;;;;;4.35;3.95;;;11.70;99.90;;;;;;5092289;28;20591;-44
2021/05/05 00:32:16;;;;;;;4.90;4.40;;;11.70;99.90;;;;;;5092458;28;20301;-48
2021/05/05 00:34:44;;;;;;;4.65;4.25;;;11.70;99.90;;;;;;5092097;28;20293;-44
2021/05/05 00:37:11;;;;;;;4.60;4.20;;;11.60;99.90;;;;;;5092181;28;20305;-43
2021/05/05 00:39:38;;;;;;;3.90;3.60;;;11.60;99.90;;;;;;5092126;28;20573;-43
2021/05/05 00:42:06;;;;;;;5.00;3.85;;;11.60;99.90;;;;;;5092055;28;20285;-43
2021/05/05 00:44:33;;;;;;;4.43;4.07;;;11.60;99.90;;;;;;5092260;28;20313;-44
2021/05/05 00:47:01;;;;;;;3.83;3.50;;;11.60;99.90;;;;;;5092125;28;20232;-43
2021/05/05 00:49:28;;;;;;;3.47;3.17;;;11.50;99.90;;;;;;5092102;28;20217;-44
2021/05/05 00:51:57;;;;;;;4.10;3.70;;;11.50;99.90;;;;;;5091963;28;20704;-43
2021/05/05 00:54:24;;;;;;;3.92;3.63;;;11.50;99.90;;;;;;5092161;28;20267;-43
2021/05/05 00:56:51;;;;;;;5.72;3.42;;;11.50;99.90;;;;;;5091787;28;20297;-45
2021/05/05 00:59:18;;;;;;;4.43;4.03;;;11.50;99.90;;;;;;5092182;28;20297;-43
2021/05/05 01:01:47;;;;;;;3.85;3.55;;;11.40;99.90;;;;;;5092025;28;20286;-42
2021/05/05 01:04:14;;;;;;;3.95;3.42;;;11.40;99.90;;;;;;5091920;28;20211;-43
2021/05/05 01:06:41;;;;;;;3.42;3.13;;;11.40;99.90;;;;;;5091898;28;20362;-43
2021/05/05 01:09:09;;;;;;;5.13;3.90;;;11.40;99.90;;;;;;5091793;28;20302;-44
2021/05/05 01:11:37;;;;;;;3.58;3.28;;;11.40;99.90;;;;;;5091817;28;20321;-45
2021/05/05 01:14:04;;;;;;;4.05;3.75;;;11.40;99.90;;;;;;5091749;28;20245;-44
2021/05/05 01:16:31;;;;;;;4.00;3.70;;;11.30;99.90;;;;;;5091668;28;20677;-44
2021/05/05 01:18:58;;;;;;;4.15;3.85;;;11.30;99.90;;;;;;5091651;28;20206;-43
2021/05/05 01:21:26;;;;;;;3.95;3.65;;;11.30;99.90;;;;;;5091820;28;20621;-46
2021/05/05 01:23:53;;;;;;;3.75;3.45;;;11.30;99.90;;;;;;5091990;28;20219;-47
2021/05/05 01:26:20;;;;;;;14.23;9.38;;;11.30;99.90;;;;;;5091783;28;20240;-45
2021/05/05 01:28:47;;;;;;;3.92;3.53;;;11.20;99.90;;;;;;5091819;28;20293;-44
2021/05/05 01:31:16;;;;;;;5.57;4.30;;;11.20;99.90;;;;;;5091500;28;20715;-43
2021/05/05 01:33:43;;;;;;;3.97;3.67;;;11.20;99.90;;;;;;5092044;28;20264;-44
2021/05/05 01:36:15;;;;;;;3.95;3.65;;;11.20;99.90;;;;;;5095199;28;20677;-43
2021/05/05 01:38:43;;;;;;;3.90;3.60;;;11.10;99.90;;;;;;5095439;28;20234;-43
2021/05/05 01:41:10;;;;;;;3.58;3.28;;;11.10;99.90;;;;;;5095329;28;20234;-46
2021/05/05 01:43:37;;;;;;;4.50;4.10;;;11.10;99.90;;;;;;5095069;28;20696;-45
2021/05/05 01:46:04;;;;;;;4.75;4.35;;;11.00;99.90;;;;;;5095079;28;20313;-44
2021/05/05 01:48:31;;;;;;;8.80;6.15;;;11.00;99.90;;;;;;5095048;28;20219;-44
2021/05/05 01:50:58;;;;;;;3.42;3.20;;;11.00;99.90;;;;;;5094899;28;20321;-45
2021/05/05 01:53:25;;;;;;;3.70;3.40;;;11.00;99.90;;;;;;5095028;28;20256;-46
2021/05/05 01:55:53;;;;;;;4.10;3.58;;;11.00;99.90;;;;;;5095042;28;20298;-45
2021/05/05 01:58:20;;;;;;;4.57;3.40;;;10.90;99.90;;;;;;5094981;28;20424;-45
2021/05/05 02:00:47;;;;;;;4.45;4.05;;;10.90;99.90;;;;;;5094740;28;20205;-45
2021/05/05 02:03:14;;;;;;;3.70;3.40;;;10.80;99.90;;;;;;5094629;28;20720;-44
2021/05/05 02:05:41;;;;;;;4.57;4.15;;;10.80;99.90;;;;;;5094901;28;20283;-43
2021/05/05 02:08:08;;;;;;;5.00;4.20;;;10.80;99.90;;;;;;5094548;28;20683;-43
2021/05/05 02:10:35;;;;;;;4.40;4.00;;;10.80;99.90;;;;;;5094652;28;20269;-45
2021/05/05 02:13:03;;;;;;;4.10;3.72;;;10.80;99.90;;;;;;5094507;28;20243;-41
2021/05/05 02:15:30;;;;;;;3.85;3.53;;;10.80;99.90;;;;;;5094181;28;20234;-42
2021/05/05 02:17:59;;;;;;;3.88;3.58;;;10.80;99.90;;;;;;5094094;28;20256;-45
2021/05/05 02:20:26;;;;;;;4.20;3.90;;;10.70;99.90;;;;;;5094514;28;20199;-48
2021/05/05 02:22:53;;;;;;;4.35;3.92;;;10.70;99.90;;;;;;5094479;28;20259;-46
2021/05/05 02:25:20;;;;;;;4.68;4.28;;;10.70;99.90;;;;;;5094420;28;20307;-46
2021/05/05 02:27:49;;;;;;;4.70;4.25;;;10.60;99.90;;;;;;5094406;28;20662;-44
2021/05/05 02:30:18;;;;;;;3.85;3.47;;;10.60;99.90;;;;;;5094127;28;20745;-44
2021/05/05 02:32:50;;;;;;;2.15;1.45;;;10.60;99.90;;;;;;5094551;28;20206;-46
2021/05/05 02:35:17;;;;;;;2.13;1.40;;;10.40;99.90;;;;;;5094443;28;20290;-48
2021/05/05 02:37:44;;;;;;;1.15;1.00;;;10.10;99.90;;;;;;5094102;28;20748;-45
2021/05/05 02:40:13;;;;;;;1.23;1.00;;;9.70;99.90;;;;;;5094205;28;20206;-47
2021/05/05 02:42:40;;;;;;;1.38;1.00;;;9.40;99.90;;;;;;5093937;28;20677;-48
2021/05/05 02:45:08;;;;;;;0.80;0.80;;;9.30;99.90;;;;;;5093569;28;20290;-44
2021/05/05 02:47:36;;;;;;;1.00;0.90;;;9.10;99.90;;;;;;5094037;28;20213;-41
2021/05/05 02:50:05;;;;;;;1.52;1.10;;;9.00;99.90;;;;;;5094006;28;20327;-41
2021/05/05 02:52:31;;;;;;;1.15;1.00;;;8.90;99.90;;;;;;5093872;28;20289;-41
2021/05/05 02:54:58;;;;;;;1.35;1.23;;;8.80;99.90;;;;;;5093843;28;20298;-41
2021/05/05 02:57:25;;;;;;;1.48;1.10;;;8.80;99.90;;;;;;5093694;28;20297;-41
2021/05/05 02:59:52;;;;;;;4.05;1.83;;;8.70;99.90;;;;;;5093884;28;20632;-44
2021/05/05 03:02:19;;;;;;;2.20;1.40;;;8.70;99.90;;;;;;5093779;28;20336;-42
2021/05/05 03:04:47;;;;;;;1.98;1.70;;;8.70;99.90;;;;;;5093778;28;20206;-43
2021/05/05 03:07:14;;;;;;;3.20;1.77;;;8.70;99.90;;;;;;5093722;28;20631;-42
2021/05/05 03:09:42;;;;;;;2.78;1.02;;;8.60;99.90;;;;;;5093477;28;20207;-42
2021/05/05 03:12:09;;;;;;;0.82;0.82;;;8.60;99.90;;;;;;5093308;28;20233;-41
2021/05/05 03:14:36;;;;;;;1.38;1.25;;;8.60;99.90;;;;;;5093223;28;20273;-43
2021/05/05 03:17:03;;;;;;;1.63;1.10;;;8.50;99.90;;;;;;5093537;28;20302;-42
2021/05/05 03:19:31;;;;;;;1.55;1.00;;;8.50;99.90;;;;;;5093207;28;20206;-43
2021/05/05 03:21:58;;;;;;;1.55;1.10;;;8.50;99.90;;;;;;5093239;28;20293;-44
2021/05/05 03:24:25;;;;;;;1.20;0.88;;;8.40;99.90;;;;;;5093097;28;20629;-42
2021/05/05 03:26:52;;;;;;;0.85;0.65;;;8.40;99.90;;;;;;5093139;28;20294;-45
2021/05/05 03:29:19;;;;;;;2.13;0.90;;;8.40;99.90;;;;;;5093378;28;20385;-42
2021/05/05 03:31:46;;;;;;;1.23;1.10;;;8.40;99.90;;;;;;5092963;28;20711;-43
2021/05/05 03:34:14;;;;;;;1.95;1.30;;;8.40;99.90;;;;;;5093094;28;20233;-41
2021/05/05 03:36:41;;;;;;;2.63;1.10;;;8.40;99.90;;;;;;5093065;28;20236;-42
2021/05/05 03:39:09;;;;;;;2.42;0.90;;;8.40;99.90;;;;;;5092945;28;20285;-42
2021/05/05 03:41:36;;;;;;;2.00;0.95;;;8.40;99.90;;;;;;5093120;28;20207;-41
2021/05/05 03:44:04;;;;;;;2.00;1.13;;;8.40;99.90;;;;;;5093007;28;20224;-42
2021/05/05 03:46:31;;;;;;;1.23;1.13;;;8.40;99.90;;;;;;5092783;28;20207;-44
2021/05/05 03:48:58;;;;;;;2.17;1.42;;;8.40;99.90;;;;;;5092859;28;20237;-42
2021/05/05 03:51:25;;;;;;;1.90;1.05;;;8.50;99.90;;;;;;5092652;28;20226;-42
2021/05/05 03:53:52;;;;;;;2.97;1.10;;;8.40;99.90;;;;;;5092941;28;20249;-42
2021/05/05 03:56:20;;;;;;;1.45;1.05;;;8.40;99.90;;;;;;5092353;28;20215;-43
2021/05/05 03:58:47;;;;;;;1.30;1.08;;;8.40;99.90;;;;;;5092551;28;20298;-42
2021/05/05 04:01:14;;;;;;;1.58;1.00;;;8.40;99.90;;;;;;5092300;28;20293;-43
2021/05/05 04:03:41;;;;;;;3.10;1.17;;;8.40;99.90;;;;;;5091950;28;20209;-42
2021/05/05 04:06:08;;;;;;;3.15;1.40;;;8.20;99.90;;;;;;5091980;28;20242;-42
2021/05/05 04:08:35;;;;;;;3.15;2.05;;;8.20;99.90;;;;;;5092235;28;20210;-43
2021/05/05 04:11:03;;;;;;;2.90;1.20;;;8.10;99.90;;;;;;5092363;28;20240;-43
2021/05/05 04:13:32;;;;;;;2.25;1.40;;;8.10;99.90;;;;;;5092068;28;20330;-42
2021/05/05 04:16:17;;;;;;;2.08;1.48;;;8.10;99.90;;;;;;5092248;28;20229;-43
2021/05/05 04:19:03;;;;;;;4.88;1.50;;;8.10;99.90;;;;;;5091938;28;20667;-43
2021/05/05 04:21:48;;;;;;;1.67;1.20;;;8.10;99.90;;;;;;5092205;28;20290;-44
2021/05/05 04:24:33;;;;;;;4.53;1.58;;;8.10;99.90;;;;;;5092386;28;20252;-43
2021/05/05 04:27:00;;;;;;;1.52;1.23;;;8.00;99.90;;;;;;5092204;28;20306;-45
2021/05/05 04:29:28;;;;;;;3.90;1.70;;;8.00;99.90;;;;;;5092549;28;20206;-43
2021/05/05 04:31:57;;;;;;;2.75;1.77;;;8.00;99.90;;;;;;5092032;28;20297;-43
2021/05/05 04:34:25;;;;;;;4.18;1.60;;;8.00;99.90;;;;;;5092206;28;20214;-44
2021/05/05 04:36:52;;;;;;;7.03;1.92;;;8.10;99.90;;;;;;5092041;28;20655;-45
2021/05/05 04:39:19;;;;;;;1.90;1.40;;;8.00;99.90;;;;;;5091969;28;20234;-45
2021/05/05 04:41:46;;;;;;;3.60;1.20;;;8.10;99.90;;;;;;5091616;28;20298;-47
2021/05/05 04:44:14;;;;;;;1.88;1.33;;;8.10;99.90;;;;;;5092013;28;20218;-45
2021/05/05 04:46:42;;;;;;;2.10;1.13;;;8.10;99.90;;;;;;5091996;28;20221;-45
2021/05/05 04:49:09;;;;;;;1.08;1.00;;;8.00;99.90;;;;;;5092071;28;20202;-45
2021/05/05 04:51:37;;;;;;;2.20;1.10;;;8.00;99.90;;;;;;5091863;28;20317;-45
2021/05/05 04:54:05;;;;;;;3.55;1.55;;;7.90;99.90;;;;;;5091775;28;20242;-46
2021/05/05 04:56:33;;;;;;;2.40;1.00;;;7.90;99.90;;;;;;5092123;28;20293;-45
2021/05/05 04:59:00;;;;;;;1.10;1.00;;;7.80;99.90;;;;;;5091946;28;20245;-45
2021/05/05 05:01:27;;;;;;;1.55;0.90;;;7.80;99.90;;;;;;5091858;28;20732;-49
2021/05/05 05:03:55;;;;;;;3.08;1.30;;;7.80;99.90;;;;;;5091963;28;20644;-41
2021/05/05 05:06:23;;;;;;;1.77;1.20;;;7.80;99.90;;;;;;5091803;28;20203;-43
2021/05/05 05:08:50;;;;;;;3.70;1.60;;;7.80;99.90;;;;;;5093901;28;20736;-45
2021/05/05 05:11:17;;;;;;;1.08;0.85;;;7.90;99.90;;;;;;5095593;28;20325;-46
2021/05/05 05:13:44;;;;;;;1.48;0.98;;;7.90;99.90;;;;;;5095567;28;20270;-47
2021/05/05 05:16:11;;;;;;;1.45;1.35;;;8.00;99.90;;;;;;5095724;28;20242;-49
2021/05/05 05:18:38;;;;;;;3.88;1.60;;;8.00;99.90;;;;;;5095726;28;20219;-52
2021/05/05 05:21:06;;;;;;;2.20;1.27;;;8.00;99.90;;;;;;5095356;28;20230;-49
2021/05/05 05:23:34;;;;;;;1.65;1.20;;;8.10;99.90;;;;;;5095363;28;20293;-51
2021/05/05 05:26:01;;;;;;;1.90;1.30;;;8.30;99.90;;;;;;5095621;28;20218;-47
2021/05/05 05:28:29;;;;;;;1.10;1.00;;;8.40;99.90;;;;;;5095631;28;20230;-47
2021/05/05 05:30:56;;;;;;;1.85;1.23;;;8.40;99.90;;;;;;5095286;28;20487;-47
2021/05/05 05:33:23;;;;;;;4.47;1.65;;;8.40;99.90;;;;;;5095081;28;20297;-47
2021/05/05 05:35:50;;;;;;;2.05;1.23;;;8.40;99.90;;;;;;5095039;28;20210;-49
2021/05/05 05:38:18;;;;;;;2.22;1.35;;;8.40;99.90;;;;;;5095011;28;20661;-46
2021/05/05 05:40:45;;;;;;;1.52;1.42;;;8.30;99.90;;;;;;5095273;28;20309;-40
2021/05/05 05:43:12;;;;;;;1.90;1.20;;;8.30;99.90;;;;;;5095058;28;20238;-41
2021/05/05 05:45:39;;;;;;;1.13;0.95;;;8.20;99.90;;;;;;5095254;28;20210;-42
2021/05/05 05:48:07;;;;;;;2.25;1.13;;;8.20;99.90;;;;;;5095042;28;20571;-40
2021/05/05 05:50:34;;;;;;;1.38;1.13;;;8.20;99.90;;;;;;5094923;28;20607;-42
2021/05/05 05:53:01;;;;;;;4.97;1.67;;;8.10;99.90;;;;;;5095146;28;20586;-44
2021/05/05 05:55:31;;;;;;;4.47;1.70;;;8.10;99.90;;;;;;5094986;28;20206;-43
2021/05/05 05:57:58;;;;;;;2.25;1.48;;;8.10;99.90;;;;;;5095150;28;20256;-45
2021/05/05 06:00:25;;;;;;;2.85;1.08;;;8.10;99.90;;;;;;5094953;28;20210;-47
2021/05/05 06:02:52;;;;;;;3.22;1.52;;;8.10;99.90;;;;;;5094707;28;20254;-44
2021/05/05 06:05:19;;;;;;;1.33;1.10;;;8.10;99.90;;;;;;5094847;28;20578;-45
2021/05/05 06:07:46;;;;;;;2.58;1.35;;;8.10;99.90;;;;;;5094779;28;20668;-48
2021/05/05 06:10:14;;;;;;;1.52;1.15;;;8.10;99.90;;;;;;5094546;28;20245;-47
2021/05/05 06:12:42;;;;;;;1.23;1.10;;;8.10;99.90;;;;;;5094425;28;20230;-51
2021/05/05 06:15:10;;;;;;;1.77;1.33;;;8.10;99.90;;;;;;5094551;28;20634;-45
2021/05/05 06:17:37;;;;;;;1.35;1.02;;;8.00;99.90;;;;;;5094658;28;20277;-46
2021/05/05 06:20:06;;;;;;;3.28;1.00;;;8.00;99.90;;;;;;5093905;28;20297;-47
2021/05/05 06:22:33;;;;;;;1.80;1.00;;;8.10;99.90;;;;;;5094542;28;20611;-44
2021/05/05 06:25:01;;;;;;;4.75;4.00;;;8.20;99.90;;;;;;5094511;28;20639;-43
2021/05/05 06:27:28;;;;;;;1.35;1.20;;;8.20;99.90;;;;;;5094315;28;20245;-43
2021/05/05 06:29:56;;;;;;;1.40;0.98;;;8.30;99.90;;;;;;5094217;28;20211;-43
2021/05/05 06:32:23;;;;;;;2.42;1.30;;;8.40;99.90;;;;;;5093623;28;20353;-42
2021/05/05 06:34:50;;;;;;;3.03;1.40;;;8.50;99.90;;;;;;5093817;28;20242;-43
2021/05/05 06:37:17;;;;;;;2.08;1.52;;;8.50;99.90;;;;;;5093776;28;20234;-43
2021/05/05 06:39:44;;;;;;;2.22;1.20;;;8.60;99.90;;;;;;5093512;28;20250;-44
2021/05/05 06:42:11;;;;;;;2.45;1.02;;;8.60;99.90;;;;;;5093392;28;20632;-43
2021/05/05 06:44:39;;;;;;;1.45;1.20;;;8.60;99.90;;;;;;5093378;28;20206;-44
2021/05/05 06:47:07;;;;;;;2.53;1.20;;;8.60;99.90;;;;;;5093364;28;20297;-43
2021/05/05 06:49:35;;;;;;;2.75;1.70;;;8.60;99.90;;;;;;5093532;28;20213;-46
2021/05/05 06:52:03;;;;;;;2.72;2.47;;;8.70;99.90;;;;;;5093632;28;20318;-44
2021/05/05 06:54:30;;;;;;;3.45;1.98;;;8.70;99.90;;;;;;5093523;28;20727;-42
2021/05/05 06:56:57;;;;;;;1.75;0.98;;;8.70;99.90;;;;;;5093375;28;20213;-44
2021/05/05 06:59:24;;;;;;;3.15;1.35;;;8.70;99.90;;;;;;5093179;28;20703;-42
2021/05/05 07:01:51;;;;;;;2.58;1.30;;;8.80;99.90;;;;;;5093082;28;20521;-42
2021/05/05 07:04:19;;;;;;;2.33;1.20;;;8.90;99.90;;;;;;5093238;28;20214;-50
2021/05/05 07:06:46;;;;;;;2.50;1.67;;;8.90;99.90;;;;;;5093236;28;20213;-43
2021/05/05 07:09:31;;;;;;;1.75;1.50;;;9.10;99.90;;;;;;5093270;28;20677;-46
2021/05/05 07:11:58;;;;;;;2.88;1.92;;;9.30;99.90;;;;;;5093257;28;20309;-48
2021/05/05 07:14:25;;;;;;;4.90;2.20;;;9.60;99.90;;;;;;5092704;28;20784;-46
2021/05/05 07:16:51;;;;;;;3.30;2.90;;;9.80;99.90;;;;;;5093067;28;20209;-44
2021/05/05 07:19:21;;;;;;;2.38;1.63;;;9.80;99.90;;;;;;5093113;28;20297;-46
2021/05/05 07:21:48;;;;;;;3.53;2.40;;;9.90;99.90;;;;;;5092982;28;20666;-45
2021/05/05 07:24:16;;;;;;;1.63;1.15;;;9.90;99.90;;;;;;5092843;28;20337;-43
2021/05/05 07:26:43;;;;;;;0.80;0.80;;;9.90;99.90;;;;;;5093016;28;20301;-47
2021/05/05 07:29:10;;;;;;;2.53;1.70;;;9.90;99.90;;;;;;5092811;28;20218;-44
2021/05/05 07:31:37;;;;;;;1.25;1.15;;;9.80;99.90;;;;;;5091688;28;20234;-50
2021/05/05 07:34:05;;;;;;;1.35;1.17;;;9.90;99.90;;;;;;5092835;28;20214;-45
2021/05/05 07:36:33;;;;;;;0.90;0.85;;;9.80;99.90;;;;;;5092653;28;20207;-44
2021/05/05 07:39:33;;;;;;;2.83;1.02;;;9.70;99.90;;;;;;5092854;28;20305;-44
2021/05/05 07:42:54;;;;;;;3.05;1.05;;;9.70;99.90;;;;;;5092826;28;20226;-43
2021/05/05 07:45:40;;;;;;;1.35;1.00;;;9.80;99.90;;;;;;5092389;28;20745;-45
2021/05/05 07:48:09;;;;;;;4.82;1.38;;;9.60;99.90;;;;;;5092687;28;20272;-43
2021/05/05 07:50:36;;;;;;;2.88;1.05;;;9.60;99.90;;;;;;5092522;28;20216;-43
2021/05/05 07:53:04;;;;;;;0.85;0.60;;;9.60;99.90;;;;;;5092367;28;20376;-42
2021/05/05 07:55:31;;;;;;;2.22;2.00;;;9.70;99.90;;;;;;5092301;28;20633;-41
2021/05/05 07:57:57;;;;;;;1.15;1.05;;;9.70;99.90;;;;;;5092491;28;20244;-41
2021/05/05 08:00:24;;;;;;;10.05;1.85;;;9.80;99.90;;;;;;5092598;28;20234;-43
2021/05/05 08:02:51;;;;;;;2.15;1.00;;;9.80;99.90;;;;;;5092452;28;20203;-46
2021/05/05 08:05:18;;;;;;;3.63;1.35;;;9.90;99.90;;;;;;5092255;28;20725;-43
2021/05/05 08:07:45;;;;;;;31.73;3.08;;;9.90;99.90;;;;;;5092324;28;20301;-44
2021/05/05 08:10:13;;;;;;;8.38;1.42;;;10.10;99.90;;;;;;5092122;28;20212;-46
2021/05/05 08:12:40;;;;;;;2.35;1.27;;;10.10;99.90;;;;;;5091950;28;20227;-42
2021/05/05 08:15:08;;;;;;;6.40;1.55;;;10.10;99.90;;;;;;5091978;28;20298;-46
2021/05/05 08:17:35;;;;;;;20.58;2.53;;;10.00;99.90;;;;;;5091931;28;20299;-42
2021/05/05 08:20:04;;;;;;;9.55;1.65;;;10.00;99.90;;;;;;5091786;28;20230;-43
2021/05/05 08:22:31;;;;;;;4.95;1.42;;;10.00;99.90;;;;;;5091938;28;20297;-44
2021/05/05 08:24:58;;;;;;;12.60;2.10;;;10.10;99.90;;;;;;5091647;28;20256;-47
2021/05/05 08:27:26;;;;;;;5.13;1.48;;;10.20;99.90;;;;;;5091790;28;20293;-44
2021/05/05 08:29:53;;;;;;;7.40;1.92;;;10.30;99.90;;;;;;5090613;28;20306;-46
2021/05/05 08:32:21;;;;;;;9.23;1.60;;;10.70;99.90;;;;;;5091705;28;20317;-45
2021/05/05 08:34:50;;;;;;;4.63;2.10;;;10.90;99.90;;;;;;5091806;28;20230;-44
2021/05/05 08:37:19;;;;;;;5.63;2.05;;;11.10;99.90;;;;;;5092083;28;20218;-45
2021/05/05 08:39:46;;;;;;;2.50;1.65;;;11.20;99.90;;;;;;5091951;28;20309;-48
2021/05/05 08:42:15;;;;;;;2.33;1.52;;;11.20;99.90;;;;;;5091633;28;20664;-45
2021/05/05 08:44:46;;;;;;;4.40;1.60;;;11.10;99.90;;;;;;5095652;28;20689;-45
2021/05/05 08:47:13;;;;;;;3.50;1.63;;;11.00;99.90;;;;;;5095814;28;20202;-44
2021/05/05 08:49:41;;;;;;;4.00;1.90;;;10.80;99.90;;;;;;5095722;28;20211;-44
2021/05/05 08:52:08;;;;;;;2.22;2.03;;;10.70;99.90;;;;;;5095922;28;20253;-46
2021/05/05 08:54:35;;;;;;;3.35;2.13;;;10.60;99.90;;;;;;5095565;28;20661;-45
2021/05/05 08:57:03;;;;;;;3.00;1.50;;;10.40;99.90;;;;;;5095847;28;20206;-44
2021/05/05 08:59:32;;;;;;;18.80;3.78;;;10.30;99.90;;;;;;5095458;28;20302;-47
2021/05/05 09:02:01;;;;;;;32.83;4.18;;;10.30;99.90;;;;;;5095451;28;20214;-44
2021/05/05 09:04:28;;;;;;;7.60;2.90;;;10.20;99.90;;;;;;5095542;28;20227;-47
2021/05/05 09:06:58;;;;;;;11.63;5.07;;;10.10;99.90;;;;;;5095563;28;20302;-46
2021/05/05 09:09:33;;;;;;;9.07;3.50;;;10.20;99.90;;;;;;5095659;28;20759;-45
2021/05/05 09:12:11;;;;;;;4.18;2.05;;;10.20;99.90;;;;;;5095534;28;20258;-46
2021/05/05 09:14:50;;;;;;;5.90;2.63;;;10.20;99.90;;;;;;5095164;28;20240;-48
2021/05/05 09:17:19;;;;;;;5.68;1.90;;;10.40;99.90;;;;;;5095589;28;20207;-45
2021/05/05 09:19:47;;;;;;;2.50;2.10;;;10.50;99.90;;;;;;5095584;28;20637;-46
2021/05/05 09:22:35;;;;;;;3.25;1.60;;;10.60;99.90;;;;;;5095431;28;20285;-45
2021/05/05 09:25:03;;;;;;;3.58;2.17;;;10.60;99.90;;;;;;5095224;28;20612;-44
2021/05/05 09:27:33;;;;;;;7.53;2.50;;;10.60;99.90;;;;;;5095203;28;20211;-45
2021/05/05 09:30:01;;;;;;;2.75;1.65;;;10.60;99.90;;;;;;5095477;28;20206;-44
2021/05/05 09:32:29;;;;;;;4.82;2.03;;;10.40;99.90;;;;;;5095261;28;20318;-43
2021/05/05 09:34:59;;;;;;;4.82;1.85;;;10.30;99.90;;;;;;5095227;28;20215;-44
2021/05/05 09:37:27;;;;;;;3.03;1.77;;;10.40;99.90;;;;;;5095031;28;20705;-45
2021/05/05 09:39:59;;;;;;;4.93;1.88;;;10.70;99.90;;;;;;5095393;28;20260;-44
2021/05/05 09:42:28;;;;;;;3.90;2.15;;;10.90;99.90;;;;;;5095391;28;20210;-47
2021/05/05 09:44:57;;;;;;;5.80;2.60;;;11.00;99.90;;;;;;5095223;28;20252;-45
2021/05/05 09:47:24;;;;;;;4.97;2.22;;;11.00;99.90;;;;;;5095213;28;20256;-44
2021/05/05 09:49:53;;;;;;;2.63;1.70;;;11.00;99.90;;;;;;5094684;28;20206;-44
2021/05/05 09:52:29;;;;;;;4.15;1.77;;;11.10;99.90;;;;;;5095060;28;20234;-43
2021/05/05 09:55:00;;;;;;;3.42;2.25;;;11.30;99.80;;;;;;5093701;28;20210;-44
2021/05/05 09:57:29;;;;;;;2.92;1.67;;;11.50;99.60;;;;;;5094764;28;20260;-47
2021/05/05 09:59:59;;;;;;;3.28;1.58;;;11.70;99.20;;;;;;5094820;28;20238;-47
2021/05/05 10:02:29;;;;;;;3.45;2.00;;;12.00;99.00;;;;;;5094602;28;20211;-48
2021/05/05 10:05:02;;;;;;;3.40;1.98;;;12.30;98.50;;;;;;5094460;28;20209;-46
2021/05/05 10:07:48;;;;;;;6.28;1.90;;;12.50;97.60;;;;;;5094428;28;20736;-45
2021/05/05 10:10:15;;;;;;;2.78;1.75;;;12.50;97.10;;;;;;5094625;28;20214;-44
2021/05/05 10:12:42;;;;;;;3.67;1.75;;;12.50;97.20;;;;;;5094054;28;20265;-46
2021/05/05 10:15:12;;;;;;;5.93;2.45;;;12.60;97.10;;;;;;5094289;28;20214;-43
2021/05/05 10:17:39;;;;;;;4.82;2.28;;;12.60;96.70;;;;;;5094460;28;20302;-43
2021/05/05 10:20:09;;;;;;;4.07;1.65;;;12.60;95.90;;;;;;5094029;28;20219;-46
2021/05/05 10:22:37;;;;;;;4.82;2.30;;;12.60;95.00;;;;;;5093966;28;20750;-45
2021/05/05 10:25:05;;;;;;;5.82;3.90;;;12.50;94.30;;;;;;5093892;28;20315;-43
2021/05/05 10:27:33;;;;;;;6.28;2.25;;;12.50;94.30;;;;;;5093828;28;20725;-46
2021/05/05 10:30:00;;;;;;;8.05;1.88;;;12.60;94.10;;;;;;5094303;28;20289;-46
2021/05/05 10:32:31;;;;;;;4.80;1.85;;;12.70;94.10;;;;;;5093420;28;20325;-45
2021/05/05 10:34:59;;;;;;;3.58;2.15;;;12.80;93.40;;;;;;5093740;28;20242;-48
2021/05/05 10:37:41;;;;;;;5.88;2.45;;;12.70;93.20;;;;;;5093980;28;20210;-46
2021/05/05 10:40:19;;;;;;;6.97;2.13;;;12.60;92.80;;;;;;5093619;28;20210;-44
2021/05/05 10:42:55;;;;;;;3.65;2.05;;;12.40;92.20;;;;;;5094064;28;20252;-44
2021/05/05 10:45:30;;;;;;;4.82;2.05;;;12.00;92.60;;;;;;5094014;28;20259;-45
2021/05/05 10:48:10;;;;;;;6.28;2.30;;;11.80;92.30;;;;;;5093655;28;20206;-45
2021/05/05 10:50:55;;;;;;;4.25;2.25;;;11.50;93.20;;;;;;5093747;28;20246;-45
2021/05/05 10:53:24;;;;;;;4.53;1.77;;;11.50;93.10;;;;;;5093524;28;20317;-47
2021/05/05 10:55:55;;;;;;;3.92;1.63;;;11.40;93.50;;;;;;5093547;28;20211;-49
2021/05/05 10:58:24;;;;;;;4.60;2.00;;;11.40;93.60;;;;;;5093587;28;20238;-46
2021/05/05 11:00:54;;;;;;;3.90;2.40;;;11.40;93.80;;;;;;5093337;28;20218;-45
2021/05/05 11:04:01;;;;;;;4.63;2.03;;;11.30;94.10;;;;;;5093601;28;20285;-44
2021/05/05 11:06:54;;;;;;;3.08;2.13;;;11.20;94.00;;;;;;5093308;28;20216;-47
2021/05/05 11:09:44;;;;;;;12.10;2.83;;;11.20;94.20;;;;;;5093159;28;20321;-46
2021/05/05 11:12:46;;;;;;;5.18;2.13;;;11.30;94.10;;;;;;5093189;28;20700;-45
2021/05/05 11:15:15;;;;;;;4.32;2.15;;;11.40;93.60;;;;;;5093371;28;20206;-45
2021/05/05 11:17:42;;;;;;;4.70;2.17;;;11.50;93.70;;;;;;5093226;28;20246;-44
2021/05/05 11:20:10;;;;;;;9.15;2.47;;;11.60;93.00;;;;;;5093075;28;20257;-43
2021/05/05 11:22:48;;;;;;;4.93;2.00;;;11.60;92.90;;;;;;5093113;28;20224;-46
2021/05/05 11:25:22;;;;;;;3.65;1.73;;;11.80;92.80;;;;;;5093035;28;20264;-44
2021/05/05 11:27:51;;;;;;;5.07;1.48;;;12.10;92.60;;;;;;5092922;28;20344;-45
2021/05/05 11:30:33;;;;;;;4.10;1.90;;;12.40;92.40;;;;;;5092844;28;20310;-45
2021/05/05 11:33:00;;;;;;;2.53;1.77;;;12.50;91.80;;;;;;5092809;28;20234;-45
2021/05/05 11:35:29;;;;;;;4.55;1.92;;;12.50;92.00;;;;;;5092592;28;20256;-44
2021/05/05 11:38:19;;;;;;;2.70;1.77;;;12.40;92.20;;;;;;5092399;28;20670;-44
2021/05/05 11:40:56;;;;;;;6.82;2.15;;;12.30;90.10;;;;;;5092924;28;20213;-45
2021/05/05 11:43:26;;;;;;;3.92;2.65;;;12.00;89.70;;;;;;5092555;28;20285;-47
2021/05/05 11:45:56;;;;;;;5.43;2.58;;;11.90;89.60;;;;;;5092324;28;20652;-47
2021/05/05 11:48:38;;;;;;;4.63;1.77;;;11.90;88.40;;;;;;5092376;28;20203;-44
2021/05/05 11:51:22;;;;;;;5.07;1.70;;;12.00;86.70;;;;;;5092593;28;20256;-43
2021/05/05 11:53:49;;;;;;;5.55;1.77;;;12.00;88.00;;;;;;5092492;28;20231;-45
2021/05/05 11:56:19;;;;;;;7.47;2.35;;;12.10;90.10;;;;;;5092293;28;20297;-43
2021/05/05 11:59:00;;;;;;;5.57;2.60;;;12.20;90.20;;;;;;5092245;28;20654;-44
2021/05/05 12:01:32;;;;;;;4.90;1.65;;;12.30;90.60;;;;;;5092574;28;20290;-43
2021/05/05 12:04:20;;;;;;;4.35;1.70;;;12.60;90.10;;;;;;5092609;28;20367;-45
2021/05/05 12:06:53;;;;;;;8.57;2.45;;;12.90;87.20;;;;;;5092385;28;20275;-45
2021/05/05 12:09:21;;;;;;;4.85;2.08;;;13.20;87.10;;;;;;5092320;28;20268;-43
2021/05/05 12:11:49;;;;;;;2.00;1.75;;;13.50;85.80;;;;;;5092202;28;20207;-44
2021/05/05 12:14:29;;;;;;;5.45;1.98;;;13.60;85.10;;;;;;5091999;28;20330;-47
2021/05/05 12:16:57;;;;;;;7.13;1.90;;;13.80;84.60;;;;;;5092039;28;20256;-44
2021/05/05 12:19:25;;;;;;;5.80;1.92;;;14.10;84.60;;;;;;5091577;28;20608;-44
2021/05/05 12:21:52;;;;;;;7.60;4.47;;;14.20;84.40;;;;;;5092165;28;20336;-46
2021/05/05 12:24:19;;;;;;;6.15;2.40;;;14.30;84.50;;;;;;5092072;28;20298;-43
2021/05/05 12:26:46;;;;;;;6.85;1.73;;;14.30;84.50;;;;;;5092180;28;20297;-44
2021/05/05 12:29:16;;;;;;;4.40;1.60;;;14.50;85.20;;;;;;5091993;28;20653;-44
2021/05/05 12:31:45;;;;;;;4.43;1.92;;;14.90;83.70;;;;;;5091927;28;20234;-47
2021/05/05 12:34:12;;;;;;;5.47;2.03;;;15.10;82.40;;;;;;5091586;28;20278;-46
2021/05/05 12:36:42;;;;;;;6.43;1.63;;;15.00;79.90;;;;;;5091815;28;20681;-48
2021/05/05 12:39:13;;;;;;;3.90;1.70;;;14.90;78.00;;;;;;5091843;28;20298;-45
2021/05/05 12:41:42;;;;;;;4.28;1.83;;;14.80;78.90;;;;;;5091661;28;20559;-46
2021/05/05 12:44:10;;;;;;;4.63;1.80;;;14.80;76.80;;;;;;5091830;28;20241;-48
2021/05/05 12:49:26;;;;;;;4.00;2.15;;;14.80;76.90;;;;;;5091790;28;20239;-46
2021/05/05 12:51:54;;;;;;;2.67;1.67;;;14.80;77.00;;;;;;5091903;28;20289;-46
2021/05/05 12:54:21;;;;;;;3.95;2.33;;;14.80;76.70;;;;;;5091655;28;20635;-50
2021/05/05 12:56:49;;;;;;;2.50;1.42;;;14.80;75.20;;;;;;5091745;28;20286;-49
2021/05/05 12:59:19;;;;;;;4.53;1.88;;;14.90;72.90;;;;;;5091820;28;20662;-45
2021/05/05 13:01:49;;;;;;;2.92;1.42;;;14.80;69.80;;;;;;5091585;28;20245;-45
2021/05/05 13:04:18;;;;;;;2.53;1.20;;;14.50;67.80;;;;;;5091805;28;20249;-48